sensor_id;sensor_type;location;lat;lon;timestamp;P1;durP1;ratioP1;P2;durP2;ratioP2
60312;SDS011;46158;52.850;6.970;2023-05-10T00:00:20;7.50;;;3.33;;
60312;SDS011;46158;52.850;6.970;2023-05-10T00:02:47;9.27;;;3.28;;
60312;SDS011;46158;52.850;6.970;2023-05-10T00:05:13;9.13;;;3.83;;
60312;SDS011;46158;52.850;6.970;2023-05-10T00:07:39;8.40;;;3.38;;
60312;SDS011;46158;52.850;6.970;2023-05-10T00:10:05;7.05;;;3.45;;
60312;SDS011;46158;52.850;6.970;2023-05-10T00:12:31;8.50;;;3.30;;
60312;SDS011;46158;52.850;6.970;2023-05-10T00:14:57;8.98;;;3.55;;
60312;SDS011;46158;52.850;6.970;2023-05-10T00:17:22;7.32;;;3.28;;
60312;SDS011;46158;52.850;6.970;2023-05-10T00:19:48;8.68;;;3.42;;
60312;SDS011;46158;52.850;6.970;2023-05-10T00:22:14;8.23;;;3.70;;
60312;SDS011;46158;52.850;6.970;2023-05-10T00:24:39;7.57;;;3.30;;
60312;SDS011;46158;52.850;6.970;2023-05-10T00:27:05;8.00;;;3.58;;
60312;SDS011;46158;52.850;6.970;2023-05-10T00:29:31;7.28;;;3.30;;
60312;SDS011;46158;52.850;6.970;2023-05-10T00:31:58;7.50;;;3.35;;
60312;SDS011;46158;52.850;6.970;2023-05-10T00:34:23;9.50;;;3.35;;
60312;SDS011;46158;52.850;6.970;2023-05-10T00:36:49;6.75;;;3.00;;
60312;SDS011;46158;52.850;6.970;2023-05-10T00:39:15;6.13;;;3.40;;
60312;SDS011;46158;52.850;6.970;2023-05-10T00:41:40;8.05;;;3.38;;
60312;SDS011;46158;52.850;6.970;2023-05-10T00:44:06;6.25;;;3.10;;
60312;SDS011;46158;52.850;6.970;2023-05-10T00:46:32;8.60;;;3.40;;
60312;SDS011;46158;52.850;6.970;2023-05-10T00:48:58;7.75;;;3.13;;
60312;SDS011;46158;52.850;6.970;2023-05-10T00:51:24;7.35;;;3.10;;
60312;SDS011;46158;52.850;6.970;2023-05-10T00:53:50;7.40;;;3.20;;
60312;SDS011;46158;52.850;6.970;2023-05-10T00:56:16;6.55;;;3.13;;
60312;SDS011;46158;52.850;6.970;2023-05-10T00:58:42;6.90;;;3.25;;
60312;SDS011;46158;52.850;6.970;2023-05-10T01:01:08;5.28;;;3.00;;
60312;SDS011;46158;52.850;6.970;2023-05-10T01:03:35;8.23;;;3.40;;
60312;SDS011;46158;52.850;6.970;2023-05-10T01:06:01;6.15;;;3.17;;
60312;SDS011;46158;52.850;6.970;2023-05-10T01:08:28;6.85;;;3.10;;
60312;SDS011;46158;52.850;6.970;2023-05-10T01:10:54;5.93;;;3.08;;
60312;SDS011;46158;52.850;6.970;2023-05-10T01:13:31;7.07;;;3.28;;
60312;SDS011;46158;52.850;6.970;2023-05-10T01:15:59;6.50;;;3.00;;
60312;SDS011;46158;52.850;6.970;2023-05-10T01:18:38;6.20;;;3.10;;
60312;SDS011;46158;52.850;6.970;2023-05-10T01:24:12;6.95;;;3.00;;
60312;SDS011;46158;52.850;6.970;2023-05-10T01:26:56;7.47;;;3.05;;
60312;SDS011;46158;52.850;6.970;2023-05-10T01:34:59;6.18;;;2.97;;
60312;SDS011;46158;52.850;6.970;2023-05-10T01:42:51;5.55;;;3.00;;
60312;SDS011;46158;52.850;6.970;2023-05-10T01:48:05;5.72;;;2.88;;
60312;SDS011;46158;52.850;6.970;2023-05-10T01:50:31;5.28;;;2.85;;
60312;SDS011;46158;52.850;6.970;2023-05-10T01:52:59;5.38;;;2.80;;
60312;SDS011;46158;52.850;6.970;2023-05-10T01:55:28;6.80;;;2.83;;
60312;SDS011;46158;52.850;6.970;2023-05-10T01:58:01;4.75;;;2.90;;
60312;SDS011;46158;52.850;6.970;2023-05-10T02:00:30;6.28;;;2.97;;
60312;SDS011;46158;52.850;6.970;2023-05-10T02:02:58;5.40;;;2.80;;
60312;SDS011;46158;52.850;6.970;2023-05-10T02:05:26;5.00;;;2.67;;
60312;SDS011;46158;52.850;6.970;2023-05-10T02:07:56;8.68;;;2.70;;
60312;SDS011;46158;52.850;6.970;2023-05-10T02:10:23;5.78;;;2.75;;
60312;SDS011;46158;52.850;6.970;2023-05-10T02:12:49;5.95;;;2.88;;
60312;SDS011;46158;52.850;6.970;2023-05-10T02:15:17;5.85;;;3.00;;
60312;SDS011;46158;52.850;6.970;2023-05-10T02:17:47;5.20;;;2.88;;
60312;SDS011;46158;52.850;6.970;2023-05-10T02:20:13;6.60;;;2.78;;
60312;SDS011;46158;52.850;6.970;2023-05-10T02:22:41;7.00;;;2.67;;
60312;SDS011;46158;52.850;6.970;2023-05-10T02:25:08;6.55;;;2.92;;
60312;SDS011;46158;52.850;6.970;2023-05-10T02:27:35;6.05;;;2.95;;
60312;SDS011;46158;52.850;6.970;2023-05-10T02:30:02;4.50;;;2.50;;
60312;SDS011;46158;52.850;6.970;2023-05-10T02:32:30;4.60;;;2.60;;
60312;SDS011;46158;52.850;6.970;2023-05-10T02:34:56;7.70;;;2.88;;
60312;SDS011;46158;52.850;6.970;2023-05-10T02:37:23;5.25;;;2.72;;
60312;SDS011;46158;52.850;6.970;2023-05-10T02:39:50;6.10;;;2.78;;
60312;SDS011;46158;52.850;6.970;2023-05-10T02:42:19;4.88;;;2.80;;
60312;SDS011;46158;52.850;6.970;2023-05-10T02:44:50;6.57;;;2.78;;
60312;SDS011;46158;52.850;6.970;2023-05-10T02:47:19;4.85;;;2.55;;
60312;SDS011;46158;52.850;6.970;2023-05-10T02:49:45;5.47;;;2.53;;
60312;SDS011;46158;52.850;6.970;2023-05-10T02:52:12;6.15;;;2.60;;
60312;SDS011;46158;52.850;6.970;2023-05-10T02:54:47;4.43;;;2.65;;
60312;SDS011;46158;52.850;6.970;2023-05-10T02:57:16;5.10;;;2.55;;
60312;SDS011;46158;52.850;6.970;2023-05-10T02:59:44;5.57;;;2.60;;
60312;SDS011;46158;52.850;6.970;2023-05-10T03:02:11;5.63;;;2.72;;
60312;SDS011;46158;52.850;6.970;2023-05-10T03:04:38;6.15;;;2.65;;
60312;SDS011;46158;52.850;6.970;2023-05-10T03:07:03;5.53;;;2.67;;
60312;SDS011;46158;52.850;6.970;2023-05-10T03:09:31;5.53;;;2.53;;
60312;SDS011;46158;52.850;6.970;2023-05-10T03:17:23;4.05;;;2.45;;
60312;SDS011;46158;52.850;6.970;2023-05-10T03:19:56;4.70;;;2.63;;
60312;SDS011;46158;52.850;6.970;2023-05-10T03:22:37;5.40;;;2.60;;
60312;SDS011;46158;52.850;6.970;2023-05-10T03:25:06;4.25;;;2.55;;
60312;SDS011;46158;52.850;6.970;2023-05-10T03:27:33;4.88;;;2.30;;
60312;SDS011;46158;52.850;6.970;2023-05-10T03:30:01;4.03;;;2.47;;
60312;SDS011;46158;52.850;6.970;2023-05-10T03:32:28;4.20;;;2.40;;
60312;SDS011;46158;52.850;6.970;2023-05-10T03:34:56;4.10;;;2.30;;
60312;SDS011;46158;52.850;6.970;2023-05-10T03:37:22;5.05;;;2.40;;
60312;SDS011;46158;52.850;6.970;2023-05-10T03:39:48;6.03;;;2.50;;
60312;SDS011;46158;52.850;6.970;2023-05-10T03:42:20;6.07;;;2.63;;
60312;SDS011;46158;52.850;6.970;2023-05-10T03:44:52;4.25;;;2.22;;
60312;SDS011;46158;52.850;6.970;2023-05-10T03:47:18;5.25;;;2.47;;
60312;SDS011;46158;52.850;6.970;2023-05-10T03:49:43;5.35;;;2.55;;
60312;SDS011;46158;52.850;6.970;2023-05-10T03:52:09;4.03;;;2.40;;
60312;SDS011;46158;52.850;6.970;2023-05-10T03:54:35;5.40;;;2.50;;
60312;SDS011;46158;52.850;6.970;2023-05-10T03:57:00;5.93;;;2.53;;
60312;SDS011;46158;52.850;6.970;2023-05-10T03:59:27;5.00;;;2.50;;
60312;SDS011;46158;52.850;6.970;2023-05-10T04:01:53;5.47;;;2.30;;
60312;SDS011;46158;52.850;6.970;2023-05-10T04:04:19;4.22;;;2.50;;
60312;SDS011;46158;52.850;6.970;2023-05-10T04:06:46;3.10;;;2.30;;
60312;SDS011;46158;52.850;6.970;2023-05-10T04:09:12;5.25;;;2.20;;
60312;SDS011;46158;52.850;6.970;2023-05-10T04:11:37;5.43;;;2.28;;
60312;SDS011;46158;52.850;6.970;2023-05-10T04:14:03;5.43;;;2.45;;
60312;SDS011;46158;52.850;6.970;2023-05-10T04:16:29;3.70;;;2.03;;
60312;SDS011;46158;52.850;6.970;2023-05-10T04:18:55;4.78;;;2.40;;
60312;SDS011;46158;52.850;6.970;2023-05-10T04:21:20;3.70;;;2.10;;
60312;SDS011;46158;52.850;6.970;2023-05-10T04:23:46;4.88;;;2.20;;
60312;SDS011;46158;52.850;6.970;2023-05-10T04:26:12;3.45;;;2.30;;
60312;SDS011;46158;52.850;6.970;2023-05-10T04:28:38;5.07;;;2.50;;
60312;SDS011;46158;52.850;6.970;2023-05-10T04:31:04;3.33;;;2.20;;
60312;SDS011;46158;52.850;6.970;2023-05-10T04:33:32;3.60;;;2.22;;
60312;SDS011;46158;52.850;6.970;2023-05-10T04:35:58;3.95;;;2.40;;
60312;SDS011;46158;52.850;6.970;2023-05-10T04:38:24;3.60;;;2.30;;
60312;SDS011;46158;52.850;6.970;2023-05-10T04:40:50;3.70;;;2.10;;
60312;SDS011;46158;52.850;6.970;2023-05-10T04:43:16;3.90;;;2.10;;
60312;SDS011;46158;52.850;6.970;2023-05-10T04:45:41;3.45;;;2.20;;
60312;SDS011;46158;52.850;6.970;2023-05-10T04:48:07;4.20;;;1.90;;
60312;SDS011;46158;52.850;6.970;2023-05-10T04:50:33;4.88;;;2.40;;
60312;SDS011;46158;52.850;6.970;2023-05-10T04:52:59;7.25;;;2.50;;
60312;SDS011;46158;52.850;6.970;2023-05-10T04:55:25;7.85;;;2.50;;
60312;SDS011;46158;52.850;6.970;2023-05-10T04:57:52;7.63;;;2.50;;
60312;SDS011;46158;52.850;6.970;2023-05-10T05:00:21;6.32;;;2.20;;
60312;SDS011;46158;52.850;6.970;2023-05-10T05:02:47;4.95;;;2.20;;
60312;SDS011;46158;52.850;6.970;2023-05-10T05:05:13;3.97;;;2.00;;
60312;SDS011;46158;52.850;6.970;2023-05-10T05:07:39;5.50;;;2.30;;
60312;SDS011;46158;52.850;6.970;2023-05-10T05:10:08;2.72;;;2.10;;
60312;SDS011;46158;52.850;6.970;2023-05-10T05:12:34;9.47;;;2.53;;
60312;SDS011;46158;52.850;6.970;2023-05-10T05:15:00;9.02;;;2.47;;
60312;SDS011;46158;52.850;6.970;2023-05-10T05:17:26;8.43;;;2.40;;
60312;SDS011;46158;52.850;6.970;2023-05-10T05:19:52;9.45;;;2.53;;
60312;SDS011;46158;52.850;6.970;2023-05-10T05:22:21;7.65;;;2.30;;
60312;SDS011;46158;52.850;6.970;2023-05-10T05:24:52;13.55;;;2.95;;
60312;SDS011;46158;52.850;6.970;2023-05-10T05:27:22;10.00;;;2.80;;
60312;SDS011;46158;52.850;6.970;2023-05-10T05:29:49;14.30;;;3.40;;
60312;SDS011;46158;52.850;6.970;2023-05-10T05:32:16;9.27;;;2.90;;
60312;SDS011;46158;52.850;6.970;2023-05-10T05:34:43;12.57;;;3.42;;
60312;SDS011;46158;52.850;6.970;2023-05-10T05:37:12;13.20;;;3.10;;
60312;SDS011;46158;52.850;6.970;2023-05-10T05:39:42;14.45;;;3.00;;
60312;SDS011;46158;52.850;6.970;2023-05-10T05:42:08;11.10;;;2.78;;
60312;SDS011;46158;52.850;6.970;2023-05-10T05:44:35;13.02;;;3.20;;
60312;SDS011;46158;52.850;6.970;2023-05-10T05:47:03;13.75;;;3.15;;
60312;SDS011;46158;52.850;6.970;2023-05-10T05:49:29;8.13;;;2.28;;
60312;SDS011;46158;52.850;6.970;2023-05-10T05:51:58;15.38;;;3.30;;
60312;SDS011;46158;52.850;6.970;2023-05-10T05:56:53;36.33;;;11.50;;
60312;SDS011;46158;52.850;6.970;2023-05-10T05:59:22;29.13;;;9.02;;
60312;SDS011;46158;52.850;6.970;2023-05-10T06:01:48;27.15;;;7.78;;
60312;SDS011;46158;52.850;6.970;2023-05-10T06:04:14;23.83;;;7.25;;
60312;SDS011;46158;52.850;6.970;2023-05-10T06:06:40;26.50;;;7.20;;
60312;SDS011;46158;52.850;6.970;2023-05-10T06:09:07;26.20;;;6.53;;
60312;SDS011;46158;52.850;6.970;2023-05-10T06:11:33;22.05;;;5.93;;
60312;SDS011;46158;52.850;6.970;2023-05-10T06:13:59;22.13;;;5.20;;
60312;SDS011;46158;52.850;6.970;2023-05-10T06:16:25;21.13;;;5.05;;
60312;SDS011;46158;52.850;6.970;2023-05-10T06:18:51;22.55;;;5.60;;
60312;SDS011;46158;52.850;6.970;2023-05-10T06:21:17;19.73;;;5.25;;
60312;SDS011;46158;52.850;6.970;2023-05-10T06:23:42;20.70;;;5.25;;
60312;SDS011;46158;52.850;6.970;2023-05-10T06:26:09;18.63;;;4.47;;
60312;SDS011;46158;52.850;6.970;2023-05-10T06:28:35;17.65;;;4.32;;
60312;SDS011;46158;52.850;6.970;2023-05-10T06:31:03;20.60;;;4.70;;
60312;SDS011;46158;52.850;6.970;2023-05-10T06:33:29;19.88;;;5.30;;
60312;SDS011;46158;52.850;6.970;2023-05-10T06:35:55;21.77;;;4.95;;
60312;SDS011;46158;52.850;6.970;2023-05-10T06:38:21;18.67;;;4.40;;
60312;SDS011;46158;52.850;6.970;2023-05-10T06:40:47;16.08;;;4.03;;
60312;SDS011;46158;52.850;6.970;2023-05-10T06:43:12;16.58;;;3.70;;
60312;SDS011;46158;52.850;6.970;2023-05-10T06:45:38;16.35;;;3.90;;
60312;SDS011;46158;52.850;6.970;2023-05-10T06:48:04;15.65;;;3.88;;
60312;SDS011;46158;52.850;6.970;2023-05-10T06:50:31;15.15;;;3.90;;
60312;SDS011;46158;52.850;6.970;2023-05-10T06:52:56;19.48;;;4.53;;
60312;SDS011;46158;52.850;6.970;2023-05-10T06:55:22;13.65;;;4.05;;
60312;SDS011;46158;52.850;6.970;2023-05-10T06:57:47;14.98;;;3.75;;
60312;SDS011;46158;52.850;6.970;2023-05-10T07:00:13;14.52;;;3.80;;
60312;SDS011;46158;52.850;6.970;2023-05-10T07:02:39;16.35;;;4.10;;
60312;SDS011;46158;52.850;6.970;2023-05-10T07:05:05;16.77;;;3.90;;
60312;SDS011;46158;52.850;6.970;2023-05-10T07:07:31;18.42;;;3.92;;
60312;SDS011;46158;52.850;6.970;2023-05-10T07:09:57;14.30;;;3.80;;
60312;SDS011;46158;52.850;6.970;2023-05-10T07:12:23;15.23;;;3.45;;
60312;SDS011;46158;52.850;6.970;2023-05-10T07:14:49;15.05;;;3.78;;
60312;SDS011;46158;52.850;6.970;2023-05-10T07:17:15;13.57;;;3.70;;
60312;SDS011;46158;52.850;6.970;2023-05-10T07:19:41;14.20;;;3.63;;
60312;SDS011;46158;52.850;6.970;2023-05-10T07:22:06;12.52;;;3.40;;
60312;SDS011;46158;52.850;6.970;2023-05-10T07:24:32;11.70;;;3.40;;
60312;SDS011;46158;52.850;6.970;2023-05-10T07:26:58;14.18;;;3.30;;
60312;SDS011;46158;52.850;6.970;2023-05-10T07:29:24;13.82;;;3.67;;
60312;SDS011;46158;52.850;6.970;2023-05-10T07:31:50;14.60;;;3.72;;
60312;SDS011;46158;52.850;6.970;2023-05-10T07:34:16;14.52;;;3.50;;
60312;SDS011;46158;52.850;6.970;2023-05-10T07:36:41;12.40;;;3.40;;
60312;SDS011;46158;52.850;6.970;2023-05-10T07:39:07;14.13;;;3.45;;
60312;SDS011;46158;52.850;6.970;2023-05-10T07:41:33;14.80;;;3.35;;
60312;SDS011;46158;52.850;6.970;2023-05-10T07:43:58;9.88;;;3.22;;
60312;SDS011;46158;52.850;6.970;2023-05-10T07:46:24;10.15;;;3.30;;
60312;SDS011;46158;52.850;6.970;2023-05-10T07:48:50;10.80;;;3.20;;
60312;SDS011;46158;52.850;6.970;2023-05-10T07:51:16;12.65;;;3.75;;
60312;SDS011;46158;52.850;6.970;2023-05-10T07:53:42;11.48;;;3.33;;
60312;SDS011;46158;52.850;6.970;2023-05-10T07:56:21;11.38;;;3.10;;
60312;SDS011;46158;52.850;6.970;2023-05-10T07:58:54;13.45;;;3.17;;
60312;SDS011;46158;52.850;6.970;2023-05-10T08:01:20;12.02;;;3.22;;
60312;SDS011;46158;52.850;6.970;2023-05-10T08:03:46;9.68;;;3.05;;
60312;SDS011;46158;52.850;6.970;2023-05-10T08:06:13;11.00;;;3.38;;
60312;SDS011;46158;52.850;6.970;2023-05-10T08:08:40;11.30;;;3.20;;
60312;SDS011;46158;52.850;6.970;2023-05-10T08:11:06;10.35;;;3.05;;
60312;SDS011;46158;52.850;6.970;2023-05-10T08:13:32;9.20;;;3.20;;
60312;SDS011;46158;52.850;6.970;2023-05-10T08:15:57;11.50;;;3.10;;
60312;SDS011;46158;52.850;6.970;2023-05-10T08:18:23;11.50;;;3.33;;
60312;SDS011;46158;52.850;6.970;2023-05-10T08:20:49;10.07;;;3.15;;
60312;SDS011;46158;52.850;6.970;2023-05-10T08:23:15;12.77;;;3.17;;
60312;SDS011;46158;52.850;6.970;2023-05-10T08:25:41;9.60;;;2.97;;
60312;SDS011;46158;52.850;6.970;2023-05-10T08:28:06;10.48;;;2.90;;
60312;SDS011;46158;52.850;6.970;2023-05-10T08:30:32;8.95;;;2.88;;
60312;SDS011;46158;52.850;6.970;2023-05-10T08:32:58;7.57;;;2.58;;
60312;SDS011;46158;52.850;6.970;2023-05-10T08:35:23;8.70;;;2.70;;
60312;SDS011;46158;52.850;6.970;2023-05-10T08:37:50;7.10;;;2.60;;
60312;SDS011;46158;52.850;6.970;2023-05-10T08:40:16;9.52;;;2.70;;
60312;SDS011;46158;52.850;6.970;2023-05-10T08:42:51;8.63;;;2.88;;
60312;SDS011;46158;52.850;6.970;2023-05-10T08:45:25;10.48;;;2.95;;
60312;SDS011;46158;52.850;6.970;2023-05-10T08:47:56;9.55;;;3.03;;
60312;SDS011;46158;52.850;6.970;2023-05-10T08:50:23;10.55;;;2.88;;
60312;SDS011;46158;52.850;6.970;2023-05-10T08:52:50;8.90;;;2.72;;
60312;SDS011;46158;52.850;6.970;2023-05-10T08:55:20;8.70;;;2.60;;
60312;SDS011;46158;52.850;6.970;2023-05-10T08:57:48;8.98;;;2.80;;
60312;SDS011;46158;52.850;6.970;2023-05-10T09:00:14;8.63;;;2.50;;
60312;SDS011;46158;52.850;6.970;2023-05-10T09:02:40;9.32;;;2.60;;
60312;SDS011;46158;52.850;6.970;2023-05-10T09:05:08;5.55;;;2.40;;
60312;SDS011;46158;52.850;6.970;2023-05-10T09:07:35;8.70;;;2.40;;
60312;SDS011;46158;52.850;6.970;2023-05-10T09:10:04;7.95;;;2.30;;
60312;SDS011;46158;52.850;6.970;2023-05-10T09:12:30;7.13;;;2.40;;
60312;SDS011;46158;52.850;6.970;2023-05-10T09:14:57;7.38;;;2.30;;
60312;SDS011;46158;52.850;6.970;2023-05-10T09:17:24;5.70;;;2.30;;
60312;SDS011;46158;52.850;6.970;2023-05-10T09:19:58;5.20;;;2.22;;
60312;SDS011;46158;52.850;6.970;2023-05-10T09:22:25;6.07;;;2.30;;
60312;SDS011;46158;52.850;6.970;2023-05-10T09:25:06;4.53;;;2.20;;
60312;SDS011;46158;52.850;6.970;2023-05-10T09:27:35;6.65;;;2.53;;
60312;SDS011;46158;52.850;6.970;2023-05-10T09:30:05;6.93;;;2.28;;
60312;SDS011;46158;52.850;6.970;2023-05-10T09:32:36;6.15;;;2.20;;
60312;SDS011;46158;52.850;6.970;2023-05-10T09:35:10;4.30;;;2.13;;
60312;SDS011;46158;52.850;6.970;2023-05-10T09:37:44;4.88;;;2.10;;
60312;SDS011;46158;52.850;6.970;2023-05-10T09:40:25;4.07;;;2.10;;
60312;SDS011;46158;52.850;6.970;2023-05-10T09:42:53;4.10;;;2.25;;
60312;SDS011;46158;52.850;6.970;2023-05-10T09:45:22;4.97;;;1.98;;
60312;SDS011;46158;52.850;6.970;2023-05-10T09:47:49;6.25;;;2.20;;
60312;SDS011;46158;52.850;6.970;2023-05-10T09:50:16;7.38;;;2.30;;
60312;SDS011;46158;52.850;6.970;2023-05-10T09:52:45;6.15;;;2.20;;
60312;SDS011;46158;52.850;6.970;2023-05-10T09:55:14;3.03;;;2.00;;
60312;SDS011;46158;52.850;6.970;2023-05-10T09:57:51;7.57;;;2.25;;
60312;SDS011;46158;52.850;6.970;2023-05-10T10:00:25;7.22;;;2.25;;
60312;SDS011;46158;52.850;6.970;2023-05-10T10:02:58;7.30;;;2.20;;
60312;SDS011;46158;52.850;6.970;2023-05-10T10:05:28;4.75;;;2.20;;
60312;SDS011;46158;52.850;6.970;2023-05-10T10:07:58;3.88;;;1.88;;
60312;SDS011;46158;52.850;6.970;2023-05-10T10:10:25;2.10;;;1.90;;
60312;SDS011;46158;52.850;6.970;2023-05-10T10:12:55;4.45;;;2.13;;
60312;SDS011;46158;52.850;6.970;2023-05-10T10:15:25;7.03;;;2.40;;
60312;SDS011;46158;52.850;6.970;2023-05-10T10:17:54;4.05;;;1.90;;
60312;SDS011;46158;52.850;6.970;2023-05-10T10:20:23;5.45;;;2.33;;
60312;SDS011;46158;52.850;6.970;2023-05-10T10:22:50;3.97;;;2.05;;
60312;SDS011;46158;52.850;6.970;2023-05-10T10:25:18;6.57;;;2.28;;
60312;SDS011;46158;52.850;6.970;2023-05-10T10:30:59;4.07;;;1.85;;
60312;SDS011;46158;52.850;6.970;2023-05-10T10:36:30;3.22;;;1.83;;
60312;SDS011;46158;52.850;6.970;2023-05-10T10:39:07;5.53;;;2.03;;
60312;SDS011;46158;52.850;6.970;2023-05-10T10:41:47;6.53;;;2.20;;
60312;SDS011;46158;52.850;6.970;2023-05-10T10:52:33;4.63;;;2.00;;
60312;SDS011;46158;52.850;6.970;2023-05-10T10:55:24;2.55;;;1.80;;
60312;SDS011;46158;52.850;6.970;2023-05-10T10:57:52;5.55;;;2.20;;
60312;SDS011;46158;52.850;6.970;2023-05-10T11:03:06;4.60;;;2.00;;
60312;SDS011;46158;52.850;6.970;2023-05-10T11:05:40;5.13;;;2.08;;
60312;SDS011;46158;52.850;6.970;2023-05-10T11:11:04;3.83;;;2.08;;
60312;SDS011;46158;52.850;6.970;2023-05-10T11:13:44;5.40;;;2.13;;
60312;SDS011;46158;52.850;6.970;2023-05-10T11:19:01;5.55;;;2.47;;
60312;SDS011;46158;52.850;6.970;2023-05-10T11:21:45;5.03;;;2.20;;
60312;SDS011;46158;52.850;6.970;2023-05-10T11:24:17;3.10;;;2.20;;
60312;SDS011;46158;52.850;6.970;2023-05-10T11:26:49;6.25;;;2.30;;
60312;SDS011;46158;52.850;6.970;2023-05-10T11:29:18;4.22;;;2.22;;
60312;SDS011;46158;52.850;6.970;2023-05-10T11:31:45;7.05;;;2.50;;
60312;SDS011;46158;52.850;6.970;2023-05-10T11:34:34;4.95;;;2.35;;
60312;SDS011;46158;52.850;6.970;2023-05-10T11:37:04;6.60;;;2.50;;
60312;SDS011;46158;52.850;6.970;2023-05-10T11:39:33;5.13;;;2.38;;
60312;SDS011;46158;52.850;6.970;2023-05-10T11:42:08;5.43;;;2.70;;
60312;SDS011;46158;52.850;6.970;2023-05-10T11:44:36;8.43;;;2.90;;
60312;SDS011;46158;52.850;6.970;2023-05-10T11:47:07;7.70;;;2.70;;
60312;SDS011;46158;52.850;6.970;2023-05-10T11:49:37;6.25;;;2.47;;
60312;SDS011;46158;52.850;6.970;2023-05-10T11:52:07;6.63;;;2.63;;
60312;SDS011;46158;52.850;6.970;2023-05-10T11:54:37;6.75;;;2.50;;
60312;SDS011;46158;52.850;6.970;2023-05-10T11:57:03;8.15;;;2.50;;
60312;SDS011;46158;52.850;6.970;2023-05-10T11:59:29;6.90;;;2.40;;
60312;SDS011;46158;52.850;6.970;2023-05-10T12:01:56;6.03;;;2.30;;
60312;SDS011;46158;52.850;6.970;2023-05-10T12:04:25;7.50;;;2.50;;
60312;SDS011;46158;52.850;6.970;2023-05-10T12:06:54;7.15;;;2.38;;
60312;SDS011;46158;52.850;6.970;2023-05-10T12:09:20;4.60;;;2.20;;
60312;SDS011;46158;52.850;6.970;2023-05-10T12:11:49;6.40;;;2.50;;
60312;SDS011;46158;52.850;6.970;2023-05-10T12:14:25;7.57;;;2.38;;
60312;SDS011;46158;52.850;6.970;2023-05-10T12:16:51;4.68;;;2.17;;
60312;SDS011;46158;52.850;6.970;2023-05-10T12:19:20;5.00;;;2.30;;
60312;SDS011;46158;52.850;6.970;2023-05-10T12:21:46;4.97;;;2.03;;
60312;SDS011;46158;52.850;6.970;2023-05-10T12:24:13;6.53;;;2.30;;
60312;SDS011;46158;52.850;6.970;2023-05-10T12:26:43;5.55;;;2.10;;
60312;SDS011;46158;52.850;6.970;2023-05-10T12:29:16;6.90;;;2.45;;
60312;SDS011;46158;52.850;6.970;2023-05-10T12:31:53;5.50;;;2.30;;
60312;SDS011;46158;52.850;6.970;2023-05-10T12:34:30;4.78;;;2.20;;
60312;SDS011;46158;52.850;6.970;2023-05-10T12:37:00;5.17;;;2.17;;
60312;SDS011;46158;52.850;6.970;2023-05-10T12:39:44;4.40;;;2.00;;
60312;SDS011;46158;52.850;6.970;2023-05-10T12:42:11;4.72;;;2.10;;
60312;SDS011;46158;52.850;6.970;2023-05-10T12:44:37;2.33;;;1.90;;
60312;SDS011;46158;52.850;6.970;2023-05-10T12:47:03;5.30;;;2.40;;
60312;SDS011;46158;52.850;6.970;2023-05-10T12:49:29;4.55;;;2.22;;
60312;SDS011;46158;52.850;6.970;2023-05-10T12:51:59;3.10;;;1.90;;
60312;SDS011;46158;52.850;6.970;2023-05-10T12:54:24;4.43;;;2.00;;
60312;SDS011;46158;52.850;6.970;2023-05-10T12:56:53;2.72;;;2.00;;
60312;SDS011;46158;52.850;6.970;2023-05-10T12:59:19;3.55;;;2.00;;
60312;SDS011;46158;52.850;6.970;2023-05-10T13:01:45;7.10;;;2.10;;
60312;SDS011;46158;52.850;6.970;2023-05-10T13:04:11;3.97;;;2.17;;
60312;SDS011;46158;52.850;6.970;2023-05-10T13:06:37;4.90;;;1.90;;
60312;SDS011;46158;52.850;6.970;2023-05-10T13:09:04;3.90;;;2.05;;
60312;SDS011;46158;52.850;6.970;2023-05-10T13:11:30;5.05;;;2.10;;
60312;SDS011;46158;52.850;6.970;2023-05-10T13:13:56;7.57;;;2.20;;
60312;SDS011;46158;52.850;6.970;2023-05-10T13:16:22;3.20;;;2.08;;
60312;SDS011;46158;52.850;6.970;2023-05-10T13:18:47;5.85;;;2.20;;
60312;SDS011;46158;52.850;6.970;2023-05-10T13:21:13;4.18;;;2.05;;
60312;SDS011;46158;52.850;6.970;2023-05-10T13:23:39;3.15;;;2.00;;
60312;SDS011;46158;52.850;6.970;2023-05-10T13:26:05;5.00;;;2.08;;
60312;SDS011;46158;52.850;6.970;2023-05-10T13:28:30;4.63;;;2.10;;
60312;SDS011;46158;52.850;6.970;2023-05-10T13:30:56;3.83;;;1.95;;
60312;SDS011;46158;52.850;6.970;2023-05-10T13:33:25;6.78;;;2.00;;
60312;SDS011;46158;52.850;6.970;2023-05-10T13:35:51;3.47;;;2.10;;
60312;SDS011;46158;52.850;6.970;2023-05-10T13:38:16;4.10;;;2.10;;
60312;SDS011;46158;52.850;6.970;2023-05-10T13:40:42;5.25;;;2.15;;
60312;SDS011;46158;52.850;6.970;2023-05-10T13:43:08;3.42;;;2.10;;
60312;SDS011;46158;52.850;6.970;2023-05-10T13:45:34;4.00;;;2.55;;
60312;SDS011;46158;52.850;6.970;2023-05-10T13:47:59;5.07;;;2.20;;
60312;SDS011;46158;52.850;6.970;2023-05-10T13:50:25;3.88;;;2.00;;
60312;SDS011;46158;52.850;6.970;2023-05-10T13:52:52;4.50;;;2.22;;
60312;SDS011;46158;52.850;6.970;2023-05-10T13:55:17;4.72;;;2.30;;
60312;SDS011;46158;52.850;6.970;2023-05-10T13:57:43;3.47;;;2.00;;
60312;SDS011;46158;52.850;6.970;2023-05-10T14:00:12;6.63;;;2.47;;
60312;SDS011;46158;52.850;6.970;2023-05-10T14:02:38;6.18;;;2.58;;
60312;SDS011;46158;52.850;6.970;2023-05-10T14:05:04;7.10;;;2.90;;
60312;SDS011;46158;52.850;6.970;2023-05-10T14:07:30;7.70;;;3.20;;
60312;SDS011;46158;52.850;6.970;2023-05-10T14:09:56;8.73;;;3.60;;
60312;SDS011;46158;52.850;6.970;2023-05-10T14:12:22;8.45;;;3.13;;
60312;SDS011;46158;52.850;6.970;2023-05-10T14:14:47;6.78;;;3.10;;
60312;SDS011;46158;52.850;6.970;2023-05-10T14:17:13;11.00;;;3.67;;
60312;SDS011;46158;52.850;6.970;2023-05-10T14:19:39;9.90;;;3.72;;
60312;SDS011;46158;52.850;6.970;2023-05-10T14:22:05;13.23;;;3.83;;
60312;SDS011;46158;52.850;6.970;2023-05-10T14:24:31;14.02;;;3.90;;
60312;SDS011;46158;52.850;6.970;2023-05-10T14:26:57;8.75;;;3.55;;
60312;SDS011;46158;52.850;6.970;2023-05-10T14:29:23;12.02;;;4.10;;
60312;SDS011;46158;52.850;6.970;2023-05-10T14:31:49;8.88;;;3.10;;
60312;SDS011;46158;52.850;6.970;2023-05-10T14:34:15;13.25;;;4.30;;
60312;SDS011;46158;52.850;6.970;2023-05-10T14:36:41;9.23;;;3.47;;
60312;SDS011;46158;52.850;6.970;2023-05-10T14:39:07;10.00;;;3.78;;
60312;SDS011;46158;52.850;6.970;2023-05-10T14:41:34;10.95;;;3.47;;
60312;SDS011;46158;52.850;6.970;2023-05-10T14:44:00;11.07;;;3.33;;
60312;SDS011;46158;52.850;6.970;2023-05-10T14:46:28;15.30;;;4.28;;
60312;SDS011;46158;52.850;6.970;2023-05-10T14:48:54;9.63;;;3.30;;
60312;SDS011;46158;52.850;6.970;2023-05-10T14:51:20;9.65;;;3.20;;
60312;SDS011;46158;52.850;6.970;2023-05-10T14:53:47;8.00;;;3.13;;
60312;SDS011;46158;52.850;6.970;2023-05-10T14:56:14;11.65;;;4.00;;
60312;SDS011;46158;52.850;6.970;2023-05-10T14:58:40;12.98;;;3.63;;
60312;SDS011;46158;52.850;6.970;2023-05-10T15:01:06;12.07;;;3.92;;
60312;SDS011;46158;52.850;6.970;2023-05-10T15:03:31;10.57;;;3.83;;
60312;SDS011;46158;52.850;6.970;2023-05-10T15:05:57;14.20;;;4.57;;
60312;SDS011;46158;52.850;6.970;2023-05-10T15:08:23;11.35;;;4.03;;
60312;SDS011;46158;52.850;6.970;2023-05-10T15:10:51;15.48;;;4.28;;
60312;SDS011;46158;52.850;6.970;2023-05-10T15:13:17;12.45;;;3.97;;
60312;SDS011;46158;52.850;6.970;2023-05-10T15:15:43;19.85;;;5.47;;
60312;SDS011;46158;52.850;6.970;2023-05-10T15:18:09;20.85;;;6.55;;
60312;SDS011;46158;52.850;6.970;2023-05-10T15:20:35;22.83;;;6.78;;
60312;SDS011;46158;52.850;6.970;2023-05-10T15:23:02;21.05;;;6.53;;
60312;SDS011;46158;52.850;6.970;2023-05-10T15:25:31;20.02;;;6.18;;
60312;SDS011;46158;52.850;6.970;2023-05-10T15:28:00;19.75;;;5.75;;
60312;SDS011;46158;52.850;6.970;2023-05-10T15:30:27;19.95;;;5.88;;
60312;SDS011;46158;52.850;6.970;2023-05-10T15:32:54;19.00;;;5.45;;